D73

Monroe-Walton County Airport

Monroe, Georgia, USA
METAR KD73 181150Z AUTO 00000KT 10SM SCT100 11/10 A3034 RMK AO2 T01090099 10144 20108
Observed Flight Rules
Oct-18 @ 11:50 UTC (31 minutes ago) Visual Flight Rules
Visibility Clouds
10 miles
  • Scattered at 10,000' AGL
Temperatures Readings
Current 11°C / 52°F
Dewpoint 10°C / 50°F
Humidity 94%
Altimeter 30.34" Hg
Pressure 1027 hPa
Elevation 267
METAR KD73 181150Z AUTO 00000KT 10SM SCT100 11/10 A3034 RMK AO2 T01090099 10144 20108
Observed Flight Rules
Oct-18 @ 11:50 UTC
(31 minutes ago)
VFR
Clouds
  • Scattered at 10,000' AGL
Temperature Dewpoint
11°C / 52°F 10°C / 50°F
Humidity Altimeter Pressure
94% 30.34" Hg 1027 hPa